Time;durP1;ratioP1;P1;durP2;ratioP2;P2;SDS_P1;SDS_P2;PMS_P1;PMS_P2;Temp;Humidity;BMP_temperature;BMP_pressure;BME280_temperature;BME280_humidity;BME280_pressure;Samples;Min_cycle;Max_cycle;Signal;HPM_P1;HPM_P2
2023/07/19 00:01:51;;;;;;;;;;;;;;;18.31;nan;100921.38;4096640;28;19922;-64
2023/07/19 00:03:53;;;;;;;;;;;;;;;18.32;nan;100927.69;4097447;28;20289;-65
2023/07/19 00:05:55;;;;;;;;;;;;;;;18.30;nan;100932.53;4097958;28;19926;-64
2023/07/19 00:07:58;;;;;;;;;;;;;;;18.26;nan;100926.69;4097385;28;19929;-64
2023/07/19 00:10:00;;;;;;;;;;;;;;;18.23;nan;100915.34;4096375;28;19933;-62
2023/07/19 00:12:02;;;;;;;;;;;;;;;18.21;nan;100912.84;4097682;28;20381;-62
2023/07/19 00:14:05;;;;;;;;;;;;;;;18.16;nan;100913.50;4097450;28;19922;-64
2023/07/19 00:16:09;;;;;;;;;;;;;;;18.13;nan;100916.69;4097690;28;19927;-63
2023/07/19 00:18:11;;;;;;;;;;;;;;;18.11;nan;100921.53;4096077;28;19932;-64
2023/07/19 00:20:14;;;;;;;;;;;;;;;18.04;nan;100918.06;4097463;28;19922;-63
2023/07/19 00:22:16;;;;;;;;;;;;;;;18.05;nan;100916.13;4097064;28;19922;-64
2023/07/19 00:24:18;;;;;;;;;;;;;;;18.03;nan;100910.06;4096919;28;19922;-63
2023/07/19 00:26:20;;;;;;;;;;;;;;;17.95;nan;100914.75;4096932;28;19928;-64
2023/07/19 00:28:22;;;;;;;;;;;;;;;17.91;nan;100910.75;4097049;28;19929;-64
2023/07/19 00:30:26;;;;;;;;;;;;;;;17.98;nan;100902.53;4097252;28;19922;-63
2023/07/19 00:32:32;;;;;;;;;;;;;;;18.06;nan;100904.16;4096665;28;20292;-64
2023/07/19 00:34:36;;;;;;;;;;;;;;;18.03;nan;100902.69;4097386;28;19946;-64
2023/07/19 00:36:38;;;;;;;;;;;;;;;17.95;nan;100902.97;4112383;28;20404;-63
2023/07/19 00:38:41;;;;;;;;;;;;;;;17.87;nan;100908.66;4097119;28;19928;-63
2023/07/19 00:40:44;;;;;;;;;;;;;;;17.81;nan;100908.50;4112278;28;19968;-63
2023/07/19 00:42:46;;;;;;;;;;;;;;;17.73;nan;100899.75;4094467;28;19922;-63
2023/07/19 00:44:47;;;;;;;;;;;;;;;17.69;nan;100904.78;4104828;28;19926;-63
2023/07/19 00:46:49;;;;;;;;;;;;;;;17.64;nan;100900.00;4081068;29;19923;-63
2023/07/19 00:48:55;;;;;;;;;;;;;;;17.62;nan;100898.56;4103112;28;19922;-63
2023/07/19 00:50:59;;;;;;;;;;;;;;;17.52;nan;100893.56;4088756;28;19931;-63
2023/07/19 00:53:00;;;;;;;;;;;;;;;17.48;nan;100887.69;4096860;28;19923;-64
2023/07/19 00:55:02;;;;;;;;;;;;;;;17.45;nan;100881.84;4096882;28;19930;-62
2023/07/19 00:57:04;;;;;;;;;;;;;;;17.40;nan;100884.41;4095710;28;19929;-62
2023/07/19 00:59:07;;;;;;;;;;;;;;;17.34;nan;100879.81;4095699;28;19929;-63
2023/07/19 01:01:10;;;;;;;;;;;;;;;17.29;nan;100883.22;4096579;28;20010;-63
2023/07/19 01:03:12;;;;;;;;;;;;;;;17.27;nan;100877.97;4096714;28;19926;-64
2023/07/19 01:05:16;;;;;;;;;;;;;;;17.24;nan;100875.66;4096639;28;20419;-63
2023/07/19 01:07:18;;;;;;;;;;;;;;;17.24;nan;100872.94;4103448;28;19926;-62
2023/07/19 01:09:20;;;;;;;;;;;;;;;17.20;nan;100870.88;4096517;28;19926;-62
2023/07/19 01:11:23;;;;;;;;;;;;;;;17.17;nan;100876.75;4095926;28;19922;-62
2023/07/19 01:13:25;;;;;;;;;;;;;;;17.11;nan;100879.31;4111295;28;19972;-63
2023/07/19 01:15:27;;;;;;;;;;;;;;;17.09;nan;100883.28;4096819;28;20366;-64
2023/07/19 01:17:29;;;;;;;;;;;;;;;17.01;nan;100881.66;4095933;28;19933;-64
2023/07/19 01:19:33;;;;;;;;;;;;;;;16.95;nan;100878.97;4096918;28;20395;-63
2023/07/19 01:21:36;;;;;;;;;;;;;;;16.96;nan;100876.00;4096463;28;19927;-63
2023/07/19 01:23:40;;;;;;;;;;;;;;;16.97;nan;100869.47;4096548;28;19933;-62
2023/07/19 01:25:43;;;;;;;;;;;;;;;16.96;nan;100869.69;4096954;28;20421;-63
2023/07/19 01:27:45;;;;;;;;;;;;;;;16.92;nan;100867.41;4096625;28;19922;-63
2023/07/19 01:29:47;;;;;;;;;;;;;;;16.87;nan;100869.13;4096643;28;19937;-64
2023/07/19 01:31:50;;;;;;;;;;;;;;;16.81;nan;100862.59;4097141;28;19922;-63
2023/07/19 01:33:52;;;;;;;;;;;;;;;16.71;nan;100864.94;4093293;28;20285;-64
2023/07/19 01:35:54;;;;;;;;;;;;;;;16.64;nan;100850.50;4097202;29;19922;-64
2023/07/19 01:37:57;;;;;;;;;;;;;;;16.64;nan;100856.78;4095565;28;20421;-63
2023/07/19 01:40:00;;;;;;;;;;;;;;;16.70;nan;100857.81;4096974;28;19933;-63
2023/07/19 01:42:03;;;;;;;;;;;;;;;16.80;nan;100855.44;4092923;28;20312;-61
2023/07/19 01:44:05;;;;;;;;;;;;;;;16.87;nan;100850.84;4095738;28;19926;-63
2023/07/19 01:46:08;;;;;;;;;;;;;;;16.84;nan;100843.06;4096028;28;19933;-63
2023/07/19 01:48:11;;;;;;;;;;;;;;;16.78;nan;100848.56;4095963;28;19926;-63
2023/07/19 01:50:13;;;;;;;;;;;;;;;16.70;nan;100847.72;4095795;28;19935;-63
2023/07/19 01:52:16;;;;;;;;;;;;;;;16.64;nan;100855.94;4103386;28;19923;-63
2023/07/19 01:54:18;;;;;;;;;;;;;;;16.64;nan;100853.22;4098826;28;19930;-63
2023/07/19 01:56:22;;;;;;;;;;;;;;;16.69;nan;100846.06;4099934;28;19922;-62
2023/07/19 01:58:23;;;;;;;;;;;;;;;16.76;nan;100848.78;4098438;28;19932;-63
2023/07/19 02:00:26;;;;;;;;;;;;;;;16.76;nan;100849.59;4099486;28;19928;-63
2023/07/19 02:02:27;;;;;;;;;;;;;;;16.74;nan;100839.97;4098639;28;20344;-64
2023/07/19 02:04:29;;;;;;;;;;;;;;;16.69;nan;100842.50;4099123;28;19928;-63
2023/07/19 02:06:31;;;;;;;;;;;;;;;16.63;nan;100851.53;4100017;28;19928;-63
2023/07/19 02:08:34;;;;;;;;;;;;;;;16.57;nan;100845.88;4098786;28;19926;-64
2023/07/19 02:10:36;;;;;;;;;;;;;;;16.49;nan;100851.59;4099378;28;20312;-64
2023/07/19 02:12:40;;;;;;;;;;;;;;;16.44;nan;100853.25;4099186;28;19922;-64
2023/07/19 02:14:42;;;;;;;;;;;;;;;16.36;nan;100851.59;4115086;28;20387;-65
2023/07/19 02:16:43;;;;;;;;;;;;;;;16.36;nan;100846.16;4099282;28;20469;-64
2023/07/19 02:18:46;;;;;;;;;;;;;;;16.32;nan;100839.47;4097497;28;19926;-65
2023/07/19 02:20:48;;;;;;;;;;;;;;;16.30;nan;100828.78;4114340;28;19932;-63
2023/07/19 02:22:50;;;;;;;;;;;;;;;16.35;nan;100823.50;4098758;28;19930;-64
2023/07/19 02:24:52;;;;;;;;;;;;;;;16.40;nan;100822.88;4099137;28;19937;-65
2023/07/19 02:26:54;;;;;;;;;;;;;;;16.38;nan;100825.00;4098978;28;19934;-65
2023/07/19 02:28:58;;;;;;;;;;;;;;;16.38;nan;100819.53;4098787;28;19928;-65
2023/07/19 02:31:00;;;;;;;;;;;;;;;16.42;nan;100820.75;4098586;28;19932;-64
2023/07/19 02:33:05;;;;;;;;;;;;;;;16.46;nan;100815.75;4096710;28;19923;-65
2023/07/19 02:35:07;;;;;;;;;;;;;;;16.42;nan;100819.94;4098221;28;20305;-64
2023/07/19 02:37:09;;;;;;;;;;;;;;;16.35;nan;100820.78;4097922;28;19927;-65
2023/07/19 02:39:11;;;;;;;;;;;;;;;16.32;nan;100826.66;4098268;28;19922;-65
2023/07/19 02:41:14;;;;;;;;;;;;;;;16.27;nan;100826.47;4098428;28;19931;-65
2023/07/19 02:43:17;;;;;;;;;;;;;;;16.19;nan;100823.94;4097559;28;19922;-64
2023/07/19 02:45:23;;;;;;;;;;;;;;;16.11;nan;100825.03;4099487;28;19930;-64
2023/07/19 02:47:25;;;;;;;;;;;;;;;16.04;nan;100819.56;4097722;28;19932;-63
2023/07/19 02:49:27;;;;;;;;;;;;;;;16.01;nan;100820.00;4099576;28;19929;-64
2023/07/19 02:51:28;;;;;;;;;;;;;;;16.03;nan;100817.06;4099206;28;19926;-63
2023/07/19 02:53:32;;;;;;;;;;;;;;;16.02;nan;100809.97;4097835;28;19923;-64
2023/07/19 02:55:34;;;;;;;;;;;;;;;16.04;nan;100819.56;4098364;28;19926;-63
2023/07/19 02:57:35;;;;;;;;;;;;;;;16.01;nan;100811.00;4098624;28;19929;-65
2023/07/19 02:59:37;;;;;;;;;;;;;;;15.98;nan;100809.53;4099006;28;19933;-64
2023/07/19 03:01:42;;;;;;;;;;;;;;;15.97;nan;100801.56;4097759;28;19937;-65
2023/07/19 03:03:44;;;;;;;;;;;;;;;15.96;nan;100798.00;4097016;28;19922;-65
2023/07/19 03:05:46;;;;;;;;;;;;;;;15.97;nan;100801.56;4098151;28;19933;-64
2023/07/19 03:07:48;;;;;;;;;;;;;;;16.00;nan;100793.81;4104405;28;20348;-64
2023/07/19 03:09:49;;;;;;;;;;;;;;;16.09;nan;100794.41;4097460;28;20336;-65
2023/07/19 03:11:52;;;;;;;;;;;;;;;16.16;nan;100794.41;4097161;28;19926;-63
2023/07/19 03:13:54;;;;;;;;;;;;;;;16.19;nan;100793.97;4097893;28;19922;-65
2023/07/19 03:15:57;;;;;;;;;;;;;;;16.21;nan;100794.63;4097973;28;20381;-66
2023/07/19 03:18:00;;;;;;;;;;;;;;;16.18;nan;100792.31;4097377;28;19926;-64
2023/07/19 03:20:02;;;;;;;;;;;;;;;16.16;nan;100799.84;4097398;28;19922;-66
2023/07/19 03:22:05;;;;;;;;;;;;;;;16.14;nan;100802.78;4097925;28;19933;-65
2023/07/19 03:24:06;;;;;;;;;;;;;;;16.17;nan;100799.63;4097923;28;19932;-64
2023/07/19 03:26:09;;;;;;;;;;;;;;;16.17;nan;100796.91;4098383;28;19922;-65
2023/07/19 03:28:12;;;;;;;;;;;;;;;16.15;nan;100799.03;4097279;28;19922;-65
2023/07/19 03:30:14;;;;;;;;;;;;;;;16.14;nan;100799.22;4097933;28;19922;-65
2023/07/19 03:32:17;;;;;;;;;;;;;;;16.18;nan;100800.50;4112919;28;19932;-64
2023/07/19 03:34:20;;;;;;;;;;;;;;;16.24;nan;100799.66;4097800;28;19933;-65
2023/07/19 03:36:23;;;;;;;;;;;;;;;16.28;nan;100803.59;4089195;28;19934;-64
2023/07/19 03:38:25;;;;;;;;;;;;;;;16.30;nan;100800.66;4096492;28;19933;-63
2023/07/19 03:40:30;;;;;;;;;;;;;;;16.34;nan;100794.56;4097384;28;19937;-65
2023/07/19 03:42:32;;;;;;;;;;;;;;;16.40;nan;100801.06;4095674;28;19936;-65
2023/07/19 03:44:35;;;;;;;;;;;;;;;16.40;nan;100795.63;4098608;28;20002;-63
2023/07/19 03:46:37;;;;;;;;;;;;;;;16.42;nan;100798.97;4096763;28;20789;-64
2023/07/19 03:48:38;;;;;;;;;;;;;;;16.48;nan;100797.28;4096412;28;19926;-64
2023/07/19 03:50:42;;;;;;;;;;;;;;;16.52;nan;100801.22;4097854;28;20625;-65
2023/07/19 03:52:46;;;;;;;;;;;;;;;16.55;nan;100798.94;4096991;29;20795;-63
2023/07/19 03:54:50;;;;;;;;;;;;;;;16.61;nan;100801.84;4096501;28;19926;-63
2023/07/19 03:56:53;;;;;;;;;;;;;;;16.65;nan;100798.47;4097595;28;20416;-65
2023/07/19 03:58:55;;;;;;;;;;;;;;;16.66;nan;100789.25;4097178;28;20703;-65
2023/07/19 04:00:58;;;;;;;;;;;;;;;16.62;nan;100801.63;4098045;28;19922;-64
2023/07/19 04:03:00;;;;;;;;;;;;;;;16.57;nan;100801.44;4096423;28;19925;-65
2023/07/19 04:05:01;;;;;;;;;;;;;;;16.51;nan;100794.94;4098072;28;19926;-64
2023/07/19 04:07:05;;;;;;;;;;;;;;;16.50;nan;100800.63;4096407;28;19930;-63
2023/07/19 04:09:10;;;;;;;;;;;;;;;16.52;nan;100795.78;4096575;28;19946;-64
2023/07/19 04:11:12;;;;;;;;;;;;;;;16.54;nan;100789.06;4097113;28;19934;-64
2023/07/19 04:13:15;;;;;;;;;;;;;;;16.54;nan;100794.50;4097373;28;19922;-66
2023/07/19 04:15:18;;;;;;;;;;;;;;;16.55;nan;100795.34;4096867;28;19930;-65
2023/07/19 04:17:20;;;;;;;;;;;;;;;16.57;nan;100804.16;4112416;28;19925;-65
2023/07/19 04:19:23;;;;;;;;;;;;;;;16.61;nan;100804.56;4097543;28;19926;-64
2023/07/19 04:21:25;;;;;;;;;;;;;;;16.61;nan;100802.66;4113051;28;19929;-65
2023/07/19 04:23:29;;;;;;;;;;;;;;;16.62;nan;100803.53;4096658;28;19929;-64
2023/07/19 04:25:34;;;;;;;;;;;;;;;16.61;nan;100799.09;4096586;28;19926;-65
2023/07/19 04:27:38;;;;;;;;;;;;;;;16.58;nan;100803.94;4096627;28;19932;-64
2023/07/19 04:29:41;;;;;;;;;;;;;;;16.62;nan;100811.69;4096686;28;19930;-65
2023/07/19 04:31:43;;;;;;;;;;;;;;;16.66;nan;100808.34;4096739;28;19922;-65
2023/07/19 04:33:45;;;;;;;;;;;;;;;16.69;nan;100807.91;4096114;28;19922;-65
2023/07/19 04:35:49;;;;;;;;;;;;;;;16.70;nan;100812.28;4096738;28;20423;-63
2023/07/19 04:37:51;;;;;;;;;;;;;;;16.72;nan;100804.75;4096316;28;19937;-63
2023/07/19 04:39:55;;;;;;;;;;;;;;;16.76;nan;100794.22;4096616;28;19972;-64
2023/07/19 04:41:58;;;;;;;;;;;;;;;16.80;nan;100795.44;4096346;28;19928;-63
2023/07/19 04:44:00;;;;;;;;;;;;;;;16.80;nan;100797.34;4088757;28;20018;-65
2023/07/19 04:46:03;;;;;;;;;;;;;;;16.83;nan;100791.47;4097640;28;20317;-65
2023/07/19 04:48:05;;;;;;;;;;;;;;;16.86;nan;100788.34;4096457;28;19926;-64
2023/07/19 04:50:09;;;;;;;;;;;;;;;16.86;nan;100780.16;4086017;28;20389;-63
2023/07/19 04:52:12;;;;;;;;;;;;;;;16.86;nan;100771.97;4095910;28;19922;-63
2023/07/19 04:54:13;;;;;;;;;;;;;;;16.87;nan;100779.09;4096551;28;21068;-64
2023/07/19 04:56:17;;;;;;;;;;;;;;;16.85;nan;100770.25;4096663;28;19977;-65
2023/07/19 04:58:20;;;;;;;;;;;;;;;16.87;nan;100776.38;4095627;28;20373;-66
2023/07/19 05:00:22;;;;;;;;;;;;;;;16.92;nan;100769.19;4096007;28;19930;-63
2023/07/19 05:02:25;;;;;;;;;;;;;;;16.95;nan;100769.84;4095737;28;20312;-65
2023/07/19 05:04:27;;;;;;;;;;;;;;;16.98;nan;100769.41;4097213;28;19945;-64
2023/07/19 05:06:29;;;;;;;;;;;;;;;16.98;nan;100777.56;4096854;28;19933;-65
2023/07/19 05:08:31;;;;;;;;;;;;;;;16.99;nan;100774.63;4095499;28;19923;-65
2023/07/19 05:10:35;;;;;;;;;;;;;;;17.01;nan;100771.69;4097169;28;19922;-65
2023/07/19 05:12:39;;;;;;;;;;;;;;;17.01;nan;100777.97;4084167;28;19927;-65
2023/07/19 05:14:41;;;;;;;;;;;;;;;17.02;nan;100776.94;4096885;28;19933;-62
2023/07/19 05:16:44;;;;;;;;;;;;;;;17.06;nan;100780.03;4095765;28;19932;-65
2023/07/19 05:18:46;;;;;;;;;;;;;;;17.09;nan;100787.78;4095567;28;20018;-65
2023/07/19 05:20:50;;;;;;;;;;;;;;;17.11;nan;100781.06;4095975;28;19922;-65
2023/07/19 05:22:52;;;;;;;;;;;;;;;17.16;nan;100783.09;4095105;28;19932;-65
2023/07/19 05:24:54;;;;;;;;;;;;;;;17.19;nan;100785.41;4096477;28;19926;-64
2023/07/19 05:26:56;;;;;;;;;;;;;;;17.20;nan;100795.28;4097352;28;20316;-64
2023/07/19 05:29:00;;;;;;;;;;;;;;;17.22;nan;100787.69;4098981;28;19922;-65
2023/07/19 05:31:03;;;;;;;;;;;;;;;17.25;nan;100797.34;4099994;28;19933;-64
2023/07/19 05:33:05;;;;;;;;;;;;;;;17.28;nan;100795.00;4099381;28;20353;-65
2023/07/19 05:35:07;;;;;;;;;;;;;;;17.29;nan;100799.41;4100435;28;19929;-63
2023/07/19 05:37:08;;;;;;;;;;;;;;;17.32;nan;100798.16;4100013;28;20380;-64
2023/07/19 05:39:10;;;;;;;;;;;;;;;17.35;nan;100805.03;4099722;28;19922;-65
2023/07/19 05:41:13;;;;;;;;;;;;;;;17.36;nan;100796.63;4097339;28;19931;-65
2023/07/19 05:43:16;;;;;;;;;;;;;;;17.37;nan;100794.75;4099841;28;19960;-62
2023/07/19 05:45:19;;;;;;;;;;;;;;;17.38;nan;100783.63;4100245;28;19933;-64
2023/07/19 05:47:21;;;;;;;;;;;;;;;17.41;nan;100782.31;4099479;28;20397;-65
2023/07/19 05:49:23;;;;;;;;;;;;;;;17.45;nan;100780.84;4099052;28;19926;-63
2023/07/19 05:51:25;;;;;;;;;;;;;;;17.50;nan;100796.56;4100509;28;20326;-64
2023/07/19 05:53:28;;;;;;;;;;;;;;;17.52;nan;100788.97;4099246;28;19927;-64
2023/07/19 05:55:30;;;;;;;;;;;;;;;17.57;nan;100789.13;4099343;28;19932;-65
2023/07/19 05:57:32;;;;;;;;;;;;;;;17.61;nan;100788.47;4098082;28;19936;-64
2023/07/19 05:59:34;;;;;;;;;;;;;;;17.67;nan;100783.19;4099381;28;19922;-65
2023/07/19 06:01:38;;;;;;;;;;;;;;;17.76;nan;100781.84;4099513;28;19922;-64
2023/07/19 06:03:40;;;;;;;;;;;;;;;17.81;nan;100771.06;4097597;28;19929;-64
2023/07/19 06:05:43;;;;;;;;;;;;;;;17.87;nan;100775.66;4099209;28;19932;-65
2023/07/19 06:07:45;;;;;;;;;;;;;;;17.91;nan;100776.06;4099381;28;20368;-65
2023/07/19 06:09:47;;;;;;;;;;;;;;;17.95;nan;100774.56;4098941;28;19922;-65
2023/07/19 06:11:49;;;;;;;;;;;;;;;18.01;nan;100773.66;4097358;28;19929;-65
2023/07/19 06:13:51;;;;;;;;;;;;;;;18.06;nan;100772.97;4100129;28;19926;-64
2023/07/19 06:15:54;;;;;;;;;;;;;;;18.10;nan;100760.50;4099411;28;19928;-65
2023/07/19 06:17:57;;;;;;;;;;;;;;;18.19;nan;100767.34;4097885;28;19922;-65
2023/07/19 06:19:59;;;;;;;;;;;;;;;18.22;nan;100769.63;4098063;28;19928;-65
2023/07/19 06:22:02;;;;;;;;;;;;;;;18.27;nan;100771.69;4098907;28;19922;-65
2023/07/19 06:24:04;;;;;;;;;;;;;;;18.31;nan;100768.28;4098615;28;19922;-65
2023/07/19 06:26:06;;;;;;;;;;;;;;;18.36;nan;100764.88;4099326;28;19932;-64
2023/07/19 06:28:08;;;;;;;;;;;;;;;18.40;nan;100762.50;4098443;28;20274;-64
2023/07/19 06:30:12;;;;;;;;;;;;;;;18.47;nan;100763.25;4098736;28;19928;-64
2023/07/19 06:32:14;;;;;;;;;;;;;;;18.53;nan;100765.09;4098237;28;19922;-64
2023/07/19 06:34:18;;;;;;;;;;;;;;;18.60;nan;100765.00;4099018;28;19923;-65
2023/07/19 06:36:20;;;;;;;;;;;;;;;18.67;nan;100760.28;4099003;28;20305;-64
2023/07/19 06:38:21;;;;;;;;;;;;;;;18.73;nan;100762.09;4098997;28;19932;-64
2023/07/19 06:40:23;;;;;;;;;;;;;;;18.80;nan;100764.75;4097134;28;19932;-65
2023/07/19 06:42:26;;;;;;;;;;;;;;;18.84;nan;100766.81;4097672;28;20672;-64
2023/07/19 06:44:28;;;;;;;;;;;;;;;18.90;nan;100762.31;4098810;28;19930;-64
2023/07/19 06:46:30;;;;;;;;;;;;;;;18.96;nan;100763.28;4099646;28;20309;-64
2023/07/19 06:48:32;;;;;;;;;;;;;;;19.02;nan;100768.66;4098248;28;19928;-64
2023/07/19 06:50:36;;;;;;;;;;;;;;;19.08;nan;100751.31;4098730;28;19929;-65
2023/07/19 06:52:39;;;;;;;;;;;;;;;19.15;nan;100753.94;4098698;28;20544;-64
2023/07/19 06:54:42;;;;;;;;;;;;;;;19.21;nan;100753.00;4099153;28;19944;-64
2023/07/19 06:56:45;;;;;;;;;;;;;;;19.27;nan;100754.81;4099771;28;19923;-65
2023/07/19 06:58:47;;;;;;;;;;;;;;;19.32;nan;100759.56;4097591;28;19923;-64
2023/07/19 07:00:49;;;;;;;;;;;;;;;19.37;nan;100754.25;4098835;28;20284;-65
2023/07/19 07:02:51;;;;;;;;;;;;;;;19.42;nan;100748.06;4098459;28;19926;-64
2023/07/19 07:04:54;;;;;;;;;;;;;;;19.48;nan;100755.31;4098724;28;20714;-65
2023/07/19 07:06:57;;;;;;;;;;;;;;;19.53;nan;100740.91;4098379;28;19929;-65
2023/07/19 07:09:00;;;;;;;;;;;;;;;19.57;nan;100745.69;4096844;28;20273;-65
2023/07/19 07:11:04;;;;;;;;;;;;;;;19.61;nan;100741.41;4097272;28;19929;-66
2023/07/19 07:13:06;;;;;;;;;;;;;;;19.67;nan;100747.00;4097004;28;19930;-65
2023/07/19 07:15:08;;;;;;;;;;;;;;;19.72;nan;100736.19;4097656;28;19932;-64
2023/07/19 07:17:10;;;;;;;;;;;;;;;19.75;nan;100724.75;4098363;28;19929;-64
2023/07/19 07:19:13;;;;;;;;;;;;;;;19.79;nan;100729.50;4096614;28;20285;-64
2023/07/19 07:21:16;;;;;;;;;;;;;;;19.87;nan;100724.75;4098266;28;20333;-65
2023/07/19 07:23:19;;;;;;;;;;;;;;;19.93;nan;100719.16;4096211;28;19941;-64
2023/07/19 07:25:21;;;;;;;;;;;;;;;19.99;nan;100720.09;4096066;28;20014;-64
2023/07/19 07:27:23;;;;;;;;;;;;;;;20.05;nan;100726.53;4096566;28;19929;-65
2023/07/19 07:29:25;;;;;;;;;;;;;;;20.07;nan;100722.47;4097250;28;19923;-64
2023/07/19 07:31:28;;;;;;;;;;;;;;;20.14;nan;100722.34;4097297;29;19937;-64
2023/07/19 07:33:30;;;;;;;;;;;;;;;20.20;nan;100723.28;4098619;28;20288;-65
2023/07/19 07:35:32;;;;;;;;;;;;;;;20.25;nan;100728.88;4098790;28;19922;-64
2023/07/19 07:37:34;;;;;;;;;;;;;;;20.31;nan;100726.03;4097270;28;19926;-65
2023/07/19 07:39:38;;;;;;;;;;;;;;;20.35;nan;100726.34;4098192;28;19926;-64
2023/07/19 07:41:40;;;;;;;;;;;;;;;20.44;nan;100729.53;4097567;28;19926;-65
2023/07/19 07:43:42;;;;;;;;;;;;;;;20.48;nan;100714.28;4096479;28;20308;-64
2023/07/19 07:45:44;;;;;;;;;;;;;;;20.54;nan;100721.53;4098195;28;19926;-64
2023/07/19 07:47:46;;;;;;;;;;;;;;;20.61;nan;100711.25;4097347;28;20292;-64
2023/07/19 07:49:49;;;;;;;;;;;;;;;20.65;nan;100701.47;4098050;28;20388;-63
2023/07/19 07:51:51;;;;;;;;;;;;;;;20.69;nan;100702.66;4098232;28;19928;-64
2023/07/19 07:53:53;;;;;;;;;;;;;;;20.77;nan;100704.16;4097843;28;19922;-65
2023/07/19 07:55:59;;;;;;;;;;;;;;;20.82;nan;100695.19;4098430;28;19926;-64
2023/07/19 07:58:01;;;;;;;;;;;;;;;20.85;nan;100695.53;4097912;28;19926;-64
2023/07/19 08:00:06;;;;;;;;;;;;;;;20.90;nan;100691.22;4098239;28;20304;-64
2023/07/19 08:02:10;;;;;;;;;;;;;;;20.95;nan;100683.06;4097642;28;19930;-65
2023/07/19 08:04:13;;;;;;;;;;;;;;;20.98;nan;100686.16;4097502;28;20993;-64
2023/07/19 08:06:15;;;;;;;;;;;;;;;21.03;nan;100674.41;4097683;28;20412;-62
2023/07/19 08:08:17;;;;;;;;;;;;;;;21.06;nan;100687.66;4097827;28;19922;-65
2023/07/19 08:10:19;;;;;;;;;;;;;;;21.10;nan;100683.34;4096877;28;20320;-65
2023/07/19 08:12:24;;;;;;;;;;;;;;;21.15;nan;100672.44;4098185;28;19923;-64
2023/07/19 08:14:26;;;;;;;;;;;;;;;21.24;nan;100678.34;4097861;28;19923;-63
2023/07/19 08:16:28;;;;;;;;;;;;;;;21.32;nan;100675.19;4097785;29;19926;-62
2023/07/19 08:18:31;;;;;;;;;;;;;;;21.38;nan;100673.38;4097412;28;19928;-63
2023/07/19 08:20:34;;;;;;;;;;;;;;;21.42;nan;100667.09;4097577;28;19928;-64
2023/07/19 08:22:35;;;;;;;;;;;;;;;21.46;nan;100674.81;4096826;28;20401;-64
2023/07/19 08:24:37;;;;;;;;;;;;;;;21.49;nan;100677.09;4097086;28;19930;-64
2023/07/19 08:26:39;;;;;;;;;;;;;;;21.54;nan;100683.53;4097949;28;19933;-64
2023/07/19 08:28:44;;;;;;;;;;;;;;;21.57;nan;100699.50;4097673;28;20292;-64
2023/07/19 08:30:47;;;;;;;;;;;;;;;21.63;nan;100685.84;4097232;28;19926;-63
2023/07/19 08:32:50;;;;;;;;;;;;;;;21.66;nan;100690.81;4095680;28;19937;-65
2023/07/19 08:34:52;;;;;;;;;;;;;;;21.69;nan;100690.31;4097800;28;19926;-64
2023/07/19 08:36:55;;;;;;;;;;;;;;;21.70;nan;100690.06;4097607;28;19969;-65
2023/07/19 08:38:57;;;;;;;;;;;;;;;21.72;nan;100679.69;4096850;28;19923;-65
2023/07/19 08:41:00;;;;;;;;;;;;;;;21.73;nan;100677.75;4096489;28;19954;-64
2023/07/19 08:43:04;;;;;;;;;;;;;;;21.76;nan;100671.75;4096946;28;19923;-64
2023/07/19 08:45:09;;;;;;;;;;;;;;;21.81;nan;100671.81;4098271;28;19922;-64
2023/07/19 08:47:11;;;;;;;;;;;;;;;21.84;nan;100675.97;4097917;28;19953;-64
2023/07/19 08:49:13;;;;;;;;;;;;;;;21.87;nan;100670.78;4096390;28;20452;-64
2023/07/19 08:51:16;;;;;;;;;;;;;;;21.90;nan;100678.53;4097428;28;19929;-63
2023/07/19 08:53:18;;;;;;;;;;;;;;;21.95;nan;100666.78;4096350;28;20317;-64
2023/07/19 08:55:21;;;;;;;;;;;;;;;22.01;nan;100663.00;4097643;28;19948;-64
2023/07/19 08:57:23;;;;;;;;;;;;;;;22.08;nan;100665.56;4094763;28;19934;-64
2023/07/19 08:59:25;;;;;;;;;;;;;;;22.12;nan;100663.97;4096987;28;19922;-65
2023/07/19 09:01:29;;;;;;;;;;;;;;;22.16;nan;100662.34;4097077;28;19926;-64
2023/07/19 09:03:32;;;;;;;;;;;;;;;22.18;nan;100662.94;4096546;28;20557;-64
2023/07/19 09:05:35;;;;;;;;;;;;;;;22.20;nan;100663.50;4097661;28;19923;-64
2023/07/19 09:07:38;;;;;;;;;;;;;;;22.23;nan;100656.69;4096616;28;20391;-64
2023/07/19 09:09:40;;;;;;;;;;;;;;;22.26;nan;100658.91;4096883;28;20323;-64
2023/07/19 09:11:42;;;;;;;;;;;;;;;22.27;nan;100644.91;4097114;28;20393;-65
2023/07/19 09:13:45;;;;;;;;;;;;;;;22.27;nan;100646.81;4096938;28;19923;-65
2023/07/19 09:15:47;;;;;;;;;;;;;;;22.31;nan;100651.56;4097802;28;19936;-64
2023/07/19 09:17:51;;;;;;;;;;;;;;;22.34;nan;100650.22;4096475;28;19941;-63
2023/07/19 09:19:53;;;;;;;;;;;;;;;22.39;nan;100646.72;4096456;28;20403;-64
2023/07/19 09:21:57;;;;;;;;;;;;;;;22.44;nan;100642.06;4097175;28;20394;-64
2023/07/19 09:23:59;;;;;;;;;;;;;;;22.48;nan;100651.47;4097572;28;20273;-64
2023/07/19 09:26:03;;;;;;;;;;;;;;;22.53;nan;100645.22;4097041;28;19922;-65
2023/07/19 09:28:08;;;;;;;;;;;;;;;22.59;nan;100655.19;4095085;28;19926;-65
2023/07/19 09:30:09;;;;;;;;;;;;;;;22.63;nan;100641.72;4096171;28;19923;-64
2023/07/19 09:32:11;;;;;;;;;;;;;;;22.66;nan;100653.06;4097687;28;19926;-64
2023/07/19 09:34:15;;;;;;;;;;;;;;;22.67;nan;100648.38;4096046;28;20088;-64
2023/07/19 09:36:18;;;;;;;;;;;;;;;22.66;nan;100644.81;4096504;28;19932;-64
2023/07/19 09:38:20;;;;;;;;;;;;;;;22.67;nan;100656.63;4096379;28;20399;-63
2023/07/19 09:40:23;;;;;;;;;;;;;;;22.69;nan;100637.94;4096411;28;19922;-64
2023/07/19 09:42:24;;;;;;;;;;;;;;;22.69;nan;100635.19;4095278;28;19929;-64
2023/07/19 09:44:27;;;;;;;;;;;;;;;22.69;nan;100632.41;4097526;28;19952;-64
2023/07/19 09:46:29;;;;;;;;;;;;;;;22.71;nan;100630.25;4097394;28;19927;-64
2023/07/19 09:48:32;;;;;;;;;;;;;;;22.71;nan;100622.00;4095854;28;19922;-63
2023/07/19 09:50:35;;;;;;;;;;;;;;;22.74;nan;100626.13;4096671;28;19928;-64
2023/07/19 09:52:38;;;;;;;;;;;;;;;22.80;nan;100619.59;4093001;28;19937;-64
2023/07/19 09:54:40;;;;;;;;;;;;;;;22.86;nan;100621.28;4096906;28;19922;-65
2023/07/19 09:56:43;;;;;;;;;;;;;;;22.88;nan;100626.53;4096915;28;20389;-64
2023/07/19 09:58:45;;;;;;;;;;;;;;;22.91;nan;100612.25;4096482;28;19929;-65
2023/07/19 10:00:48;;;;;;;;;;;;;;;22.94;nan;100625.50;4096446;29;19930;-63
2023/07/19 10:02:50;;;;;;;;;;;;;;;22.95;nan;100614.22;4096518;28;19923;-64
2023/07/19 10:04:52;;;;;;;;;;;;;;;22.95;nan;100616.16;4096270;28;19933;-64
2023/07/19 10:07:04;;;;;;;;;;;;;;;22.96;nan;100615.03;4096369;28;19953;-65
2023/07/19 10:09:25;;;;;;;;;;;;;;;22.96;nan;100610.38;4096220;28;19926;-62
2023/07/19 10:11:27;;;;;;;;;;;;;;;22.94;nan;100606.22;4096573;28;20307;-63
2023/07/19 10:13:29;;;;;;;;;;;;;;;22.94;nan;100598.78;4095312;28;19927;-64
2023/07/19 10:15:32;;;;;;;;;;;;;;;22.97;nan;100597.44;4098169;28;19945;-63
2023/07/19 10:17:39;;;;;;;;;;;;;;;22.95;nan;100603.19;4099123;28;19926;-64
2023/07/19 10:19:41;;;;;;;;;;;;;;;22.94;nan;100607.03;4098281;28;19934;-64
2023/07/19 10:21:44;;;;;;;;;;;;;;;22.94;nan;100607.03;4098929;28;19937;-63
2023/07/19 10:23:48;;;;;;;;;;;;;;;22.95;nan;100602.38;4099049;28;19923;-65
2023/07/19 10:25:50;;;;;;;;;;;;;;;22.94;nan;100600.72;4099606;28;19929;-64
2023/07/19 10:27:56;;;;;;;;;;;;;;;22.92;nan;100600.16;4098905;28;19945;-65
2023/07/19 10:29:58;;;;;;;;;;;;;;;22.93;nan;100599.88;4099296;28;19932;-64
2023/07/19 10:32:00;;;;;;;;;;;;;;;22.92;nan;100603.72;4098136;28;19926;-64
2023/07/19 10:34:03;;;;;;;;;;;;;;;22.93;nan;100601.78;4113901;28;20414;-64
2023/07/19 10:36:06;;;;;;;;;;;;;;;22.93;nan;100596.28;4098528;28;19930;-63
2023/07/19 10:38:12;;;;;;;;;;;;;;;22.92;nan;100592.72;4099050;28;20488;-62
2023/07/19 10:40:19;;;;;;;;;;;;;;;22.94;nan;100601.53;4099443;28;19923;-64
2023/07/19 10:42:22;;;;;;;;;;;;;;;22.94;nan;100593.25;4098427;28;19945;-64
2023/07/19 10:44:26;;;;;;;;;;;;;;;22.95;nan;100597.69;4098628;28;19929;-64
2023/07/19 10:46:30;;;;;;;;;;;;;;;22.99;nan;100592.47;4099093;28;19930;-64
2023/07/19 10:48:32;;;;;;;;;;;;;;;23.01;nan;100590.31;4097909;28;20392;-62